createdAt,value
2019-04-01T00:00:58.486Z,55.72
2019-04-01T00:05:02.719Z,55.65
2019-04-01T00:09:07.853Z,56.18
2019-04-01T00:13:12.042Z,55.96
2019-04-01T00:17:16.411Z,56.14
2019-04-01T00:21:20.800Z,56.14
2019-04-01T00:25:25.016Z,56.54
2019-04-01T00:29:29.237Z,56.43
2019-04-01T00:33:34.082Z,56.55
2019-04-01T00:37:38.313Z,56.72
2019-04-01T00:41:50.566Z,57.41
2019-04-01T00:45:55.812Z,57.41
2019-04-01T00:50:01.285Z,57.56
2019-04-01T00:54:05.794Z,58.37
2019-04-01T00:58:10.922Z,58.11
2019-04-01T01:02:36.316Z,58.11
2019-04-01T01:06:41.915Z,58.00
2019-04-01T01:10:47.874Z,58.19
2019-04-01T01:14:53.759Z,58.35
2019-04-01T01:18:58.507Z,58.38
2019-04-01T01:23:02.690Z,58.86
2019-04-01T01:27:08.443Z,58.90
2019-04-01T01:31:12.698Z,59.37
2019-04-01T01:35:17.820Z,58.96
2019-04-01T01:39:22.596Z,58.85
2019-04-01T01:43:27.577Z,59.21
2019-04-01T01:47:32.645Z,58.96
2019-04-01T01:51:37.457Z,59.16
2019-04-01T01:55:42.181Z,59.21
2019-04-01T01:59:46.532Z,59.22
2019-04-01T02:03:51.148Z,59.23
2019-04-01T02:07:55.469Z,59.52
2019-04-01T02:11:59.657Z,59.84
2019-04-01T02:16:04.275Z,59.53
2019-04-01T02:20:08.878Z,59.30
2019-04-01T02:24:13.314Z,59.56
2019-04-01T02:28:18.733Z,59.24
2019-04-01T02:32:24.053Z,58.92
2019-04-01T02:36:28.320Z,58.94
2019-04-01T02:40:33.364Z,58.81
2019-04-01T02:44:38.137Z,58.68
2019-04-01T02:48:42.348Z,58.48
2019-04-01T02:52:46.524Z,58.26
2019-04-01T02:56:51.055Z,57.96
2019-04-01T03:00:55.256Z,57.84
2019-04-01T03:05:00.488Z,57.79
2019-04-01T03:09:07.089Z,57.70
2019-04-01T03:13:11.386Z,57.66
2019-04-01T03:17:15.845Z,57.36
2019-04-01T03:21:20.040Z,57.12
2019-04-01T03:25:24.484Z,56.98
2019-04-01T03:29:29.521Z,56.72
2019-04-01T03:33:34.069Z,57.22
2019-04-01T03:37:38.354Z,56.84
2019-04-01T03:41:42.540Z,56.71
2019-04-01T03:45:47.237Z,56.45
2019-04-01T03:49:51.553Z,56.55
2019-04-01T03:53:55.744Z,56.50
2019-04-01T03:58:00.010Z,56.47
2019-04-01T04:02:04.711Z,56.45
2019-04-01T04:06:09.191Z,56.71
2019-04-01T04:10:13.427Z,56.91
2019-04-01T04:14:17.647Z,56.78
2019-04-01T04:18:21.918Z,56.82
2019-04-01T04:22:26.207Z,57.22
2019-04-01T04:26:30.654Z,57.01
2019-04-01T04:30:34.997Z,57.15
2019-04-01T04:34:39.304Z,57.03
2019-04-01T04:38:43.569Z,57.16
2019-04-01T04:42:47.875Z,57.29
2019-04-01T04:46:52.467Z,57.33
2019-04-01T04:50:56.697Z,57.67
2019-04-01T04:55:01.198Z,57.83
2019-04-01T04:59:05.464Z,58.59
2019-04-01T05:03:09.677Z,59.07
2019-04-01T05:07:13.942Z,58.82
2019-04-01T05:11:18.175Z,58.59
2019-04-01T05:15:22.675Z,58.91
2019-04-01T05:19:26.866Z,59.21
2019-04-01T05:23:31.595Z,58.96
2019-04-01T05:42:11.614Z,59.84
2019-04-01T05:46:15.823Z,58.66
2019-04-01T05:50:20.007Z,59.08
2019-04-01T05:54:24.320Z,60.23
2019-04-01T05:58:28.870Z,59.20
2019-04-01T06:02:33.121Z,59.13
2019-04-01T06:06:37.677Z,59.31
2019-04-01T06:10:42.201Z,59.31
2019-04-01T06:14:47.379Z,59.01
2019-04-01T06:18:51.590Z,59.05
2019-04-01T06:22:56.795Z,58.63
2019-04-01T06:27:01.625Z,58.84
2019-04-01T06:31:05.876Z,58.98
2019-04-01T06:35:10.455Z,58.97
2019-04-01T06:39:14.688Z,58.86
2019-04-01T06:43:19.331Z,58.69
2019-04-01T06:47:23.526Z,58.16
2019-04-01T06:51:27.966Z,57.84
2019-04-01T06:55:32.252Z,57.47
2019-04-01T06:59:36.620Z,56.95
2019-04-01T07:03:40.852Z,57.41
2019-04-01T07:07:45.085Z,57.49
2019-04-01T07:11:49.291Z,57.30
2019-04-01T07:15:53.724Z,56.90
2019-04-01T07:19:58.054Z,57.30
2019-04-01T07:24:02.382Z,57.13
2019-04-01T07:28:06.574Z,57.14
2019-04-01T07:32:14.362Z,56.50
2019-04-01T07:36:17.268Z,57.05
2019-04-01T07:40:21.514Z,56.32
2019-04-01T07:44:26.080Z,56.50
2019-04-01T07:48:30.773Z,56.43
2019-04-01T07:52:34.922Z,55.87
2019-04-01T07:56:39.243Z,55.08
2019-04-01T08:00:43.429Z,55.04
2019-04-01T08:04:47.650Z,54.99
2019-04-01T08:08:51.974Z,55.29
2019-04-01T08:12:56.589Z,54.53
2019-04-01T08:17:00.888Z,55.07
2019-04-01T08:21:05.312Z,55.04
2019-04-01T08:25:09.554Z,53.96
2019-04-01T08:29:13.878Z,54.39
2019-04-01T08:33:18.112Z,53.54
2019-04-01T08:37:22.365Z,53.70
2019-04-01T08:41:26.581Z,53.50
2019-04-01T08:45:30.832Z,53.81
2019-04-01T08:49:35.133Z,52.74
2019-04-01T08:53:39.674Z,53.16
2019-04-01T08:57:43.877Z,52.08
2019-04-01T09:01:48.299Z,53.08
2019-04-01T09:05:53.056Z,52.92
2019-04-01T09:09:57.728Z,51.58
2019-04-01T09:14:02.162Z,51.58
2019-04-01T09:18:06.695Z,51.75
2019-04-01T09:22:10.938Z,51.80
2019-04-01T09:26:15.219Z,50.18
2019-04-01T09:30:19.902Z,50.39
2019-04-01T09:34:24.264Z,49.96
2019-04-01T09:38:28.477Z,50.46
2019-04-01T09:42:32.720Z,49.68
2019-04-01T09:46:36.957Z,49.68
2019-04-01T09:50:41.184Z,49.97
2019-04-01T09:54:45.414Z,48.79
2019-04-01T09:58:49.649Z,48.79
2019-04-01T10:02:53.866Z,49.04
2019-04-01T10:06:58.127Z,48.13
2019-04-01T10:11:02.314Z,49.29
2019-04-01T10:15:07.864Z,47.42
2019-04-01T10:19:12.460Z,48.30
2019-04-01T10:23:16.698Z,47.32
2019-04-01T10:27:20.887Z,47.20
2019-04-01T10:31:25.166Z,47.96
2019-04-01T10:35:29.340Z,47.54
2019-04-01T10:39:33.832Z,46.36
2019-04-01T10:43:38.078Z,46.24
2019-04-01T10:47:42.313Z,45.32
2019-04-01T10:51:46.572Z,44.77
2019-04-01T10:55:50.751Z,44.59
2019-04-01T10:59:55.033Z,46.64
2019-04-01T11:03:59.255Z,45.78
2019-04-01T11:08:03.524Z,44.61
2019-04-01T11:12:07.959Z,44.90
2019-04-01T11:16:12.125Z,43.47
2019-04-01T11:20:16.358Z,41.72
2019-04-01T11:24:20.557Z,43.47
2019-04-01T11:28:24.773Z,43.27
2019-04-01T11:32:29.121Z,43.59
2019-04-01T11:36:33.379Z,42.34
2019-04-01T11:40:38.888Z,42.02
2019-04-01T11:44:43.410Z,42.09
2019-04-01T11:48:47.638Z,41.70
2019-04-01T11:52:51.867Z,40.71
2019-04-01T11:56:56.138Z,41.56
2019-04-01T12:01:00.666Z,41.62
2019-04-01T12:05:05.214Z,41.30
2019-04-01T12:09:10.126Z,39.96
2019-04-01T12:13:14.349Z,40.08
2019-04-01T12:17:18.616Z,40.32
2019-04-01T12:21:22.992Z,40.39
2019-04-01T12:25:27.633Z,39.56
2019-04-01T12:29:31.898Z,39.73
2019-04-01T12:33:36.117Z,39.86
2019-04-01T12:37:40.399Z,38.15
2019-04-01T12:41:44.626Z,38.64
2019-04-01T12:45:49.237Z,39.64
2019-04-01T12:49:53.603Z,40.30
2019-04-01T12:53:57.931Z,39.37
2019-04-01T12:58:02.886Z,38.39
2019-04-01T13:02:07.490Z,38.82
2019-04-01T13:06:11.735Z,38.47
2019-04-01T13:10:18.215Z,39.37
2019-04-01T13:14:22.538Z,38.93
2019-04-01T13:18:26.704Z,38.71
2019-04-01T13:22:30.941Z,37.26
2019-04-01T13:26:35.164Z,39.00
2019-04-01T13:30:39.764Z,38.83
2019-04-01T13:34:44.047Z,39.07
2019-04-01T13:38:48.228Z,38.42
2019-04-01T13:42:52.445Z,38.40
2019-04-01T13:46:56.657Z,37.85
2019-04-01T13:51:01.338Z,36.86
2019-04-01T13:55:06.290Z,37.00
2019-04-01T13:59:12.358Z,38.15
2019-04-01T14:03:16.520Z,36.97
2019-04-01T14:07:21.456Z,36.47
2019-04-01T14:11:25.984Z,37.80
2019-04-01T14:15:30.564Z,38.41
2019-04-01T14:19:34.800Z,37.46
2019-04-01T14:23:38.990Z,38.40
2019-04-01T14:27:43.228Z,38.00
2019-04-01T14:31:47.482Z,37.90
2019-04-01T14:35:51.717Z,38.67
2019-04-01T14:39:55.952Z,38.65
2019-04-01T14:44:00.147Z,39.19
2019-04-01T14:48:08.087Z,39.07
2019-04-01T14:52:11.340Z,38.88
2019-04-01T14:56:16.196Z,38.86
2019-04-01T15:00:20.717Z,38.79
2019-04-01T15:04:25.016Z,39.40
2019-04-01T15:08:29.863Z,38.35
2019-04-01T15:12:34.047Z,38.92
2019-04-01T15:16:38.696Z,38.86
2019-04-01T15:20:43.084Z,39.39
2019-04-01T15:24:48.358Z,39.39
2019-04-01T15:28:52.803Z,39.20
2019-04-01T15:32:57.700Z,39.58
2019-04-01T15:37:02.038Z,39.29
2019-04-01T15:41:06.491Z,39.35
2019-04-01T15:45:10.782Z,39.66
2019-04-01T15:49:15.004Z,39.66
2019-04-01T15:53:23.484Z,39.40
2019-04-01T15:57:27.637Z,39.47
2019-04-01T16:01:31.847Z,39.53
2019-04-01T16:05:36.090Z,39.53
2019-04-01T16:09:40.681Z,39.59
2019-04-01T16:13:45.209Z,38.88
2019-04-01T16:17:49.624Z,39.43
2019-04-01T16:21:53.911Z,38.89
2019-04-01T16:25:58.140Z,39.52
2019-04-01T16:30:03.674Z,39.40
2019-04-01T16:34:07.942Z,39.30
2019-04-01T16:38:12.286Z,39.51
2019-04-01T16:42:16.515Z,39.71
2019-04-01T16:46:21.146Z,39.40
2019-04-01T16:50:28.462Z,39.70
2019-04-01T16:54:31.577Z,39.68
2019-04-01T16:58:35.880Z,39.82
2019-04-01T17:02:40.388Z,39.97
2019-04-01T17:06:44.752Z,39.72
2019-04-01T17:10:49.425Z,39.76
2019-04-01T17:14:53.658Z,40.36
2019-04-01T17:18:57.945Z,40.28
2019-04-01T17:23:02.194Z,40.07
2019-04-01T17:27:11.499Z,40.17
2019-04-01T17:31:15.722Z,40.42
2019-04-01T17:35:19.925Z,40.51
2019-04-01T17:39:24.167Z,40.34
2019-04-01T17:43:28.396Z,40.45
2019-04-01T17:47:32.782Z,40.62
2019-04-01T17:51:36.973Z,40.63
2019-04-01T17:55:41.258Z,40.84
2019-04-01T17:59:45.423Z,40.78
2019-04-01T18:03:49.681Z,40.79
2019-04-01T18:07:54.032Z,40.77
2019-04-01T18:11:58.612Z,40.74
2019-04-01T18:16:02.837Z,40.61
2019-04-01T18:20:07.097Z,40.64
2019-04-01T18:24:11.374Z,40.45
2019-04-01T18:28:15.663Z,40.53
2019-04-01T18:32:19.909Z,40.80
2019-04-01T18:36:24.131Z,41.07
2019-04-01T18:40:33.326Z,40.98
2019-04-01T18:44:34.314Z,40.76
2019-04-01T18:48:38.849Z,41.05
2019-04-01T18:52:43.083Z,41.18
2019-04-01T18:56:47.791Z,41.30
2019-04-01T19:00:52.186Z,41.76
2019-04-01T19:04:56.663Z,41.40
2019-04-01T19:09:09.250Z,41.53
2019-04-01T19:13:12.186Z,41.59
2019-04-01T19:17:14.458Z,41.48
2019-04-01T19:21:19.505Z,41.48
2019-04-01T19:25:25.774Z,41.30
2019-04-01T19:29:30.426Z,41.30
2019-04-01T19:33:34.662Z,41.43
2019-04-01T19:37:38.982Z,41.65
2019-04-01T19:41:43.152Z,41.28
2019-04-01T19:45:50.470Z,41.28
2019-04-01T19:49:53.296Z,41.22
2019-04-01T19:53:57.508Z,41.15
2019-04-01T19:58:04.955Z,41.16
2019-04-01T20:02:09.715Z,41.22
2019-04-01T20:06:14.164Z,41.23
2019-04-01T20:10:18.571Z,41.23
2019-04-01T20:14:22.748Z,41.10
2019-04-01T20:18:26.942Z,41.14
2019-04-01T20:22:31.255Z,41.00
2019-04-01T20:26:35.472Z,41.04
2019-04-01T20:30:42.504Z,41.13
2019-04-01T20:34:56.484Z,41.13
2019-04-01T20:38:51.562Z,41.12
2019-04-01T20:42:55.779Z,41.21
2019-04-01T20:46:59.970Z,41.28
2019-04-01T20:51:04.399Z,41.47
2019-04-01T20:55:09.069Z,41.65
2019-04-01T20:59:13.494Z,41.68
2019-04-01T21:03:17.848Z,41.97
2019-04-01T21:07:22.090Z,42.13
2019-04-01T21:11:26.310Z,42.31
2019-04-01T21:15:30.692Z,42.33
2019-04-01T21:19:35.035Z,42.34
2019-04-01T21:23:39.589Z,42.06
2019-04-01T21:27:43.828Z,42.07
2019-04-01T21:31:48.146Z,42.31
2019-04-01T21:35:52.768Z,42.48
2019-04-01T21:39:56.989Z,42.58
2019-04-01T21:44:01.181Z,42.61
2019-04-01T21:48:06.537Z,42.73
2019-04-01T21:52:11.072Z,42.99
2019-04-01T21:56:15.319Z,43.08
2019-04-01T22:00:30.327Z,43.06
2019-04-01T22:04:34.680Z,42.96
2019-04-01T22:08:39.011Z,42.90
2019-04-01T22:12:43.178Z,42.91
2019-04-01T22:16:48.191Z,42.96
2019-04-01T22:20:52.709Z,42.96
2019-04-01T22:24:57.240Z,43.02
2019-04-01T22:29:01.417Z,43.06
2019-04-01T22:33:05.668Z,43.11
2019-04-01T22:37:09.875Z,43.20
2019-04-01T22:41:14.096Z,43.19
2019-04-01T22:45:18.376Z,43.33
2019-04-01T22:49:22.560Z,43.44
2019-04-01T22:53:26.794Z,43.61
2019-04-01T22:57:31.054Z,43.76
2019-04-01T23:01:35.280Z,43.81
2019-04-01T23:05:39.866Z,43.79
2019-04-01T23:09:44.073Z,43.85
2019-04-01T23:13:48.415Z,43.98
2019-04-01T23:17:52.933Z,44.24
2019-04-01T23:21:57.158Z,44.45
2019-04-01T23:26:01.332Z,44.63
2019-04-01T23:30:08.191Z,44.79
2019-04-01T23:34:13.223Z,44.86
2019-04-01T23:38:18.307Z,44.99
2019-04-01T23:42:22.519Z,45.14
2019-04-01T23:46:26.731Z,45.24
2019-04-01T23:50:31.034Z,45.30
2019-04-01T23:54:35.250Z,45.55
2019-04-01T23:58:39.501Z,45.55
